Daisy, Kentucky
Current Conditions -  °F | °C
As of 7:15 AM on Sunday 23 Nov 2014 (Local Time) from KI35 Reporting Station
Scattered Clouds Scattered Clouds  
Wind Chill: 52°   Ceiling: Unl
Heat Index: 52°   Visibility: 10mi
Dew Point: 36°   Wind: 7mph
Humidity: 54%   Direction: 70°ENE
Pressure: 30.07"   Gusts: NA
Location:  37.1177°N, 83.0448°W
Report Text: KI35 231215Z AUTO 07006KT 10SM SCT050 11/02 A3007 RMK AO1
Loading
Personal Weather Stations






























Interactive Weather Map New forecast layout! Learn more

10-Day Weather Forecast

Advertisements
Track Severe Weather on mobile